sensor_id;sensor_type;location;lat;lon;timestamp;P1;durP1;ratioP1;P2;durP2;ratioP2
75746;SDS011;64363;52.198;21.020;2023-04-15T01:56:37;16.15;;;10.50;;
75746;SDS011;64363;52.198;21.020;2023-04-15T02:04:47;16.77;;;10.02;;
75746;SDS011;64363;52.198;21.020;2023-04-15T02:08:52;19.55;;;10.95;;
75746;SDS011;64363;52.198;21.020;2023-04-15T02:26:10;18.88;;;11.65;;
75746;SDS011;64363;52.198;21.020;2023-04-15T02:42:28;18.40;;;11.07;;
75746;SDS011;64363;52.198;21.020;2023-04-15T02:44:55;17.52;;;11.55;;
75746;SDS011;64363;52.198;21.020;2023-04-15T02:47:20;19.40;;;11.05;;
75746;SDS011;64363;52.198;21.020;2023-04-15T02:49:46;19.33;;;11.45;;
75746;SDS011;64363;52.198;21.020;2023-04-15T02:52:12;18.60;;;12.32;;
75746;SDS011;64363;52.198;21.020;2023-04-15T02:54:38;17.83;;;11.98;;
75746;SDS011;64363;52.198;21.020;2023-04-15T02:57:04;21.55;;;11.32;;
75746;SDS011;64363;52.198;21.020;2023-04-15T02:59:31;19.70;;;11.10;;
75746;SDS011;64363;52.198;21.020;2023-04-15T03:05:09;17.60;;;12.02;;
75746;SDS011;64363;52.198;21.020;2023-04-15T03:07:36;21.02;;;12.18;;
75746;SDS011;64363;52.198;21.020;2023-04-15T03:10:02;20.15;;;12.07;;
75746;SDS011;64363;52.198;21.020;2023-04-15T03:12:28;21.35;;;12.10;;
75746;SDS011;64363;52.198;21.020;2023-04-15T03:14:54;20.58;;;12.57;;
75746;SDS011;64363;52.198;21.020;2023-04-15T03:17:20;20.83;;;13.13;;
75746;SDS011;64363;52.198;21.020;2023-04-15T03:19:46;20.35;;;12.38;;
75746;SDS011;64363;52.198;21.020;2023-04-15T03:22:12;20.38;;;12.30;;
75746;SDS011;64363;52.198;21.020;2023-04-15T03:24:38;16.95;;;10.73;;
75746;SDS011;64363;52.198;21.020;2023-04-15T03:27:03;18.17;;;11.20;;
75746;SDS011;64363;52.198;21.020;2023-04-15T03:29:30;17.90;;;12.15;;
75746;SDS011;64363;52.198;21.020;2023-04-15T03:31:56;17.13;;;12.10;;
75746;SDS011;64363;52.198;21.020;2023-04-15T03:34:22;20.40;;;12.07;;
75746;SDS011;64363;52.198;21.020;2023-04-15T03:36:47;21.92;;;11.68;;
75746;SDS011;64363;52.198;21.020;2023-04-15T03:39:13;16.27;;;10.65;;
75746;SDS011;64363;52.198;21.020;2023-04-15T03:41:39;18.73;;;11.85;;
75746;SDS011;64363;52.198;21.020;2023-04-15T03:44:05;19.23;;;12.25;;
75746;SDS011;64363;52.198;21.020;2023-04-15T03:46:30;19.75;;;11.27;;
75746;SDS011;64363;52.198;21.020;2023-04-15T03:48:57;17.23;;;10.18;;
75746;SDS011;64363;52.198;21.020;2023-04-15T03:51:23;16.75;;;11.05;;
75746;SDS011;64363;52.198;21.020;2023-04-15T03:53:49;17.42;;;9.90;;
75746;SDS011;64363;52.198;21.020;2023-04-15T03:56:14;16.73;;;11.32;;
75746;SDS011;64363;52.198;21.020;2023-04-15T03:58:40;21.55;;;11.38;;
75746;SDS011;64363;52.198;21.020;2023-04-15T04:01:06;20.63;;;12.80;;
75746;SDS011;64363;52.198;21.020;2023-04-15T04:03:31;16.52;;;10.50;;
75746;SDS011;64363;52.198;21.020;2023-04-15T04:05:57;15.70;;;10.63;;
75746;SDS011;64363;52.198;21.020;2023-04-15T04:08:23;17.75;;;11.32;;
75746;SDS011;64363;52.198;21.020;2023-04-15T04:10:49;16.70;;;10.25;;
75746;SDS011;64363;52.198;21.020;2023-04-15T04:13:15;17.77;;;11.15;;
75746;SDS011;64363;52.198;21.020;2023-04-15T04:15:40;18.60;;;10.65;;
75746;SDS011;64363;52.198;21.020;2023-04-15T04:18:06;15.77;;;9.75;;
75746;SDS011;64363;52.198;21.020;2023-04-15T04:20:32;17.83;;;12.00;;
75746;SDS011;64363;52.198;21.020;2023-04-15T04:22:58;18.48;;;10.80;;
75746;SDS011;64363;52.198;21.020;2023-04-15T04:25:24;16.25;;;10.50;;
75746;SDS011;64363;52.198;21.020;2023-04-15T04:27:50;18.27;;;11.85;;
75746;SDS011;64363;52.198;21.020;2023-04-15T04:30:15;17.25;;;11.23;;
75746;SDS011;64363;52.198;21.020;2023-04-15T04:32:42;18.67;;;11.60;;
75746;SDS011;64363;52.198;21.020;2023-04-15T04:35:08;20.15;;;11.23;;
75746;SDS011;64363;52.198;21.020;2023-04-15T04:37:34;16.83;;;10.35;;
75746;SDS011;64363;52.198;21.020;2023-04-15T04:40:00;17.42;;;10.77;;
75746;SDS011;64363;52.198;21.020;2023-04-15T04:42:26;16.42;;;11.48;;
75746;SDS011;64363;52.198;21.020;2023-04-15T04:44:51;18.05;;;11.80;;
75746;SDS011;64363;52.198;21.020;2023-04-15T04:47:18;18.50;;;10.45;;
75746;SDS011;64363;52.198;21.020;2023-04-15T04:49:43;17.98;;;10.48;;
75746;SDS011;64363;52.198;21.020;2023-04-15T04:52:09;18.05;;;10.70;;
75746;SDS011;64363;52.198;21.020;2023-04-15T04:54:35;18.40;;;12.25;;
75746;SDS011;64363;52.198;21.020;2023-04-15T04:57:01;20.23;;;13.70;;
75746;SDS011;64363;52.198;21.020;2023-04-15T04:59:27;23.90;;;15.35;;
75746;SDS011;64363;52.198;21.020;2023-04-15T05:01:53;21.75;;;12.88;;
75746;SDS011;64363;52.198;21.020;2023-04-15T05:04:18;19.55;;;12.45;;
75746;SDS011;64363;52.198;21.020;2023-04-15T05:06:44;21.48;;;11.80;;
75746;SDS011;64363;52.198;21.020;2023-04-15T05:09:09;18.55;;;12.35;;
75746;SDS011;64363;52.198;21.020;2023-04-15T05:11:35;21.55;;;13.02;;
75746;SDS011;64363;52.198;21.020;2023-04-15T05:14:01;19.55;;;11.30;;
75746;SDS011;64363;52.198;21.020;2023-04-15T05:16:27;17.83;;;11.07;;
75746;SDS011;64363;52.198;21.020;2023-04-15T05:18:52;19.10;;;11.52;;
75746;SDS011;64363;52.198;21.020;2023-04-15T05:21:18;17.35;;;11.30;;
75746;SDS011;64363;52.198;21.020;2023-04-15T05:23:44;19.02;;;10.85;;
75746;SDS011;64363;52.198;21.020;2023-04-15T05:26:10;18.15;;;11.15;;
75746;SDS011;64363;52.198;21.020;2023-04-15T05:28:36;18.10;;;10.70;;
75746;SDS011;64363;52.198;21.020;2023-04-15T05:31:02;15.85;;;10.05;;
75746;SDS011;64363;52.198;21.020;2023-04-15T05:33:28;16.42;;;10.80;;
75746;SDS011;64363;52.198;21.020;2023-04-15T05:35:54;15.68;;;10.30;;
75746;SDS011;64363;52.198;21.020;2023-04-15T05:38:20;16.80;;;10.70;;
75746;SDS011;64363;52.198;21.020;2023-04-15T05:40:45;17.83;;;11.00;;
75746;SDS011;64363;52.198;21.020;2023-04-15T05:43:11;18.17;;;10.90;;
75746;SDS011;64363;52.198;21.020;2023-04-15T05:45:37;14.25;;;9.90;;
75746;SDS011;64363;52.198;21.020;2023-04-15T05:48:02;15.10;;;9.15;;
75746;SDS011;64363;52.198;21.020;2023-04-15T05:50:28;18.13;;;9.90;;
75746;SDS011;64363;52.198;21.020;2023-04-15T05:52:54;18.13;;;10.63;;
75746;SDS011;64363;52.198;21.020;2023-04-15T05:55:20;15.85;;;11.13;;
75746;SDS011;64363;52.198;21.020;2023-04-15T05:57:46;18.27;;;9.93;;
75746;SDS011;64363;52.198;21.020;2023-04-15T06:00:12;18.30;;;10.35;;
75746;SDS011;64363;52.198;21.020;2023-04-15T06:02:38;19.92;;;11.88;;
75746;SDS011;64363;52.198;21.020;2023-04-15T06:05:04;17.33;;;9.77;;
75746;SDS011;64363;52.198;21.020;2023-04-15T06:07:34;16.58;;;11.05;;
75746;SDS011;64363;52.198;21.020;2023-04-15T06:10:01;16.02;;;9.32;;
75746;SDS011;64363;52.198;21.020;2023-04-15T06:12:28;16.60;;;11.40;;
75746;SDS011;64363;52.198;21.020;2023-04-15T06:14:54;19.23;;;10.13;;
75746;SDS011;64363;52.198;21.020;2023-04-15T06:17:19;16.13;;;9.25;;
75746;SDS011;64363;52.198;21.020;2023-04-15T06:19:45;15.10;;;10.57;;
75746;SDS011;64363;52.198;21.020;2023-04-15T06:22:11;14.77;;;10.43;;
75746;SDS011;64363;52.198;21.020;2023-04-15T06:24:37;14.30;;;10.00;;
75746;SDS011;64363;52.198;21.020;2023-04-15T06:27:02;17.08;;;9.60;;
75746;SDS011;64363;52.198;21.020;2023-04-15T06:29:28;13.93;;;8.95;;
75746;SDS011;64363;52.198;21.020;2023-04-15T06:31:54;15.25;;;8.73;;
75746;SDS011;64363;52.198;21.020;2023-04-15T06:34:21;16.23;;;8.85;;
75746;SDS011;64363;52.198;21.020;2023-04-15T06:36:46;12.80;;;9.38;;
75746;SDS011;64363;52.198;21.020;2023-04-15T06:39:13;15.82;;;8.80;;
75746;SDS011;64363;52.198;21.020;2023-04-15T06:41:38;12.95;;;9.05;;
75746;SDS011;64363;52.198;21.020;2023-04-15T06:44:05;16.45;;;8.90;;
75746;SDS011;64363;52.198;21.020;2023-04-15T06:46:31;15.50;;;9.77;;
75746;SDS011;64363;52.198;21.020;2023-04-15T06:48:57;15.57;;;9.73;;
75746;SDS011;64363;52.198;21.020;2023-04-15T06:51:22;12.43;;;9.18;;
75746;SDS011;64363;52.198;21.020;2023-04-15T06:53:48;13.60;;;9.35;;
75746;SDS011;64363;52.198;21.020;2023-04-15T06:56:14;14.63;;;8.98;;
75746;SDS011;64363;52.198;21.020;2023-04-15T06:58:40;11.43;;;8.35;;
75746;SDS011;64363;52.198;21.020;2023-04-15T07:01:05;14.98;;;9.60;;
75746;SDS011;64363;52.198;21.020;2023-04-15T07:03:31;12.23;;;8.55;;
75746;SDS011;64363;52.198;21.020;2023-04-15T07:05:57;15.60;;;8.10;;
75746;SDS011;64363;52.198;21.020;2023-04-15T07:08:23;14.50;;;9.43;;
75746;SDS011;64363;52.198;21.020;2023-04-15T07:10:49;15.57;;;9.23;;
75746;SDS011;64363;52.198;21.020;2023-04-15T07:13:16;14.82;;;8.88;;
75746;SDS011;64363;52.198;21.020;2023-04-15T07:15:41;14.88;;;9.50;;
75746;SDS011;64363;52.198;21.020;2023-04-15T07:18:07;12.75;;;9.05;;
75746;SDS011;64363;52.198;21.020;2023-04-15T07:20:33;12.60;;;8.57;;
75746;SDS011;64363;52.198;21.020;2023-04-15T07:22:59;12.38;;;8.05;;
75746;SDS011;64363;52.198;21.020;2023-04-15T07:25:25;12.88;;;9.00;;
75746;SDS011;64363;52.198;21.020;2023-04-15T07:27:51;13.32;;;8.63;;
75746;SDS011;64363;52.198;21.020;2023-04-15T07:30:18;10.60;;;7.13;;
75746;SDS011;64363;52.198;21.020;2023-04-15T07:32:44;11.35;;;7.55;;
75746;SDS011;64363;52.198;21.020;2023-04-15T07:35:09;10.75;;;6.93;;
75746;SDS011;64363;52.198;21.020;2023-04-15T07:37:36;10.20;;;6.55;;
75746;SDS011;64363;52.198;21.020;2023-04-15T07:40:01;10.50;;;7.22;;
75746;SDS011;64363;52.198;21.020;2023-04-15T07:42:29;9.73;;;7.32;;
75746;SDS011;64363;52.198;21.020;2023-04-15T07:44:55;9.43;;;6.53;;
75746;SDS011;64363;52.198;21.020;2023-04-15T07:47:21;9.77;;;6.40;;
75746;SDS011;64363;52.198;21.020;2023-04-15T07:49:46;11.00;;;7.22;;
75746;SDS011;64363;52.198;21.020;2023-04-15T07:52:12;10.75;;;6.50;;
75746;SDS011;64363;52.198;21.020;2023-04-15T07:54:38;11.38;;;7.22;;
75746;SDS011;64363;52.198;21.020;2023-04-15T07:57:04;10.73;;;7.03;;
75746;SDS011;64363;52.198;21.020;2023-04-15T07:59:29;10.80;;;6.15;;
75746;SDS011;64363;52.198;21.020;2023-04-15T08:01:57;12.73;;;6.32;;
75746;SDS011;64363;52.198;21.020;2023-04-15T08:04:23;11.45;;;7.65;;
75746;SDS011;64363;52.198;21.020;2023-04-15T08:06:49;14.52;;;7.30;;
75746;SDS011;64363;52.198;21.020;2023-04-15T08:09:16;12.30;;;6.85;;
75746;SDS011;64363;52.198;21.020;2023-04-15T08:11:42;10.18;;;6.40;;
75746;SDS011;64363;52.198;21.020;2023-04-15T08:14:08;11.32;;;6.25;;
75746;SDS011;64363;52.198;21.020;2023-04-15T08:16:34;10.52;;;7.47;;
75746;SDS011;64363;52.198;21.020;2023-04-15T08:19:00;9.82;;;6.63;;
75746;SDS011;64363;52.198;21.020;2023-04-15T08:21:26;10.00;;;7.15;;
75746;SDS011;64363;52.198;21.020;2023-04-15T08:23:52;9.30;;;6.72;;
75746;SDS011;64363;52.198;21.020;2023-04-15T08:26:19;11.02;;;7.40;;
75746;SDS011;64363;52.198;21.020;2023-04-15T08:28:45;36.53;;;19.17;;
75746;SDS011;64363;52.198;21.020;2023-04-15T08:31:15;8.77;;;5.53;;
75746;SDS011;64363;52.198;21.020;2023-04-15T08:33:42;9.85;;;5.72;;
75746;SDS011;64363;52.198;21.020;2023-04-15T08:36:08;8.13;;;6.35;;
75746;SDS011;64363;52.198;21.020;2023-04-15T08:38:34;7.93;;;5.50;;
75746;SDS011;64363;52.198;21.020;2023-04-15T08:41:02;8.57;;;5.05;;
75746;SDS011;64363;52.198;21.020;2023-04-15T08:43:34;8.35;;;5.00;;
75746;SDS011;64363;52.198;21.020;2023-04-15T08:46:05;7.38;;;4.65;;
75746;SDS011;64363;52.198;21.020;2023-04-15T08:48:33;9.80;;;5.25;;
75746;SDS011;64363;52.198;21.020;2023-04-15T08:51:02;8.73;;;5.53;;
75746;SDS011;64363;52.198;21.020;2023-04-15T08:53:29;7.35;;;5.18;;
75746;SDS011;64363;52.198;21.020;2023-04-15T08:55:56;8.13;;;5.38;;
75746;SDS011;64363;52.198;21.020;2023-04-15T08:58:24;8.77;;;5.30;;
75746;SDS011;64363;52.198;21.020;2023-04-15T09:00:50;14.25;;;8.35;;
75746;SDS011;64363;52.198;21.020;2023-04-15T09:03:16;8.13;;;4.68;;
75746;SDS011;64363;52.198;21.020;2023-04-15T09:05:42;19.95;;;16.40;;
75746;SDS011;64363;52.198;21.020;2023-04-15T09:08:08;7.43;;;4.70;;
75746;SDS011;64363;52.198;21.020;2023-04-15T09:10:34;6.88;;;4.50;;
75746;SDS011;64363;52.198;21.020;2023-04-15T09:13:00;6.78;;;4.82;;
75746;SDS011;64363;52.198;21.020;2023-04-15T09:15:27;6.72;;;5.07;;
75746;SDS011;64363;52.198;21.020;2023-04-15T09:17:54;5.68;;;3.92;;
75746;SDS011;64363;52.198;21.020;2023-04-15T09:20:21;6.20;;;4.22;;
75746;SDS011;64363;52.198;21.020;2023-04-15T09:22:47;6.57;;;4.40;;
75746;SDS011;64363;52.198;21.020;2023-04-15T09:30:15;7.20;;;4.10;;
75746;SDS011;64363;52.198;21.020;2023-04-15T09:32:51;6.50;;;4.32;;
75746;SDS011;64363;52.198;21.020;2023-04-15T09:35:19;6.57;;;4.45;;
75746;SDS011;64363;52.198;21.020;2023-04-15T09:37:45;7.88;;;3.83;;
75746;SDS011;64363;52.198;21.020;2023-04-15T09:40:11;7.38;;;4.22;;
75746;SDS011;64363;52.198;21.020;2023-04-15T09:42:56;6.07;;;4.43;;
75746;SDS011;64363;52.198;21.020;2023-04-15T09:45:22;5.53;;;3.85;;
75746;SDS011;64363;52.198;21.020;2023-04-15T09:47:48;6.13;;;3.92;;
75746;SDS011;64363;52.198;21.020;2023-04-15T09:50:17;5.93;;;4.05;;
75746;SDS011;64363;52.198;21.020;2023-04-15T09:52:44;6.82;;;4.07;;
75746;SDS011;64363;52.198;21.020;2023-04-15T09:55:11;5.40;;;3.85;;
75746;SDS011;64363;52.198;21.020;2023-04-15T09:57:38;6.40;;;3.70;;
75746;SDS011;64363;52.198;21.020;2023-04-15T10:00:06;5.32;;;3.78;;
75746;SDS011;64363;52.198;21.020;2023-04-15T10:02:35;9.18;;;4.13;;
75746;SDS011;64363;52.198;21.020;2023-04-15T10:05:02;8.10;;;4.30;;
75746;SDS011;64363;52.198;21.020;2023-04-15T10:07:28;4.38;;;3.60;;
75746;SDS011;64363;52.198;21.020;2023-04-15T10:09:54;5.30;;;4.00;;
75746;SDS011;64363;52.198;21.020;2023-04-15T10:12:21;11.88;;;5.00;;
75746;SDS011;64363;52.198;21.020;2023-04-15T10:14:49;7.47;;;4.35;;
75746;SDS011;64363;52.198;21.020;2023-04-15T10:17:21;5.80;;;3.97;;
75746;SDS011;64363;52.198;21.020;2023-04-15T10:19:48;8.38;;;3.92;;
75746;SDS011;64363;52.198;21.020;2023-04-15T10:22:13;5.80;;;4.20;;
75746;SDS011;64363;52.198;21.020;2023-04-15T10:24:40;7.57;;;4.13;;
75746;SDS011;64363;52.198;21.020;2023-04-15T10:27:07;5.05;;;3.50;;
75746;SDS011;64363;52.198;21.020;2023-04-15T10:29:34;6.22;;;4.28;;
75746;SDS011;64363;52.198;21.020;2023-04-15T10:32:00;5.78;;;4.20;;
75746;SDS011;64363;52.198;21.020;2023-04-15T10:34:28;5.30;;;3.83;;
75746;SDS011;64363;52.198;21.020;2023-04-15T10:36:55;7.55;;;4.60;;
75746;SDS011;64363;52.198;21.020;2023-04-15T10:44:44;5.25;;;3.33;;
75746;SDS011;64363;52.198;21.020;2023-04-15T10:47:13;5.82;;;3.80;;
75746;SDS011;64363;52.198;21.020;2023-04-15T10:49:44;15.45;;;5.47;;
75746;SDS011;64363;52.198;21.020;2023-04-15T10:52:15;16.38;;;5.78;;
75746;SDS011;64363;52.198;21.020;2023-04-15T10:54:43;8.23;;;4.47;;
75746;SDS011;64363;52.198;21.020;2023-04-15T10:57:13;6.13;;;4.03;;
75746;SDS011;64363;52.198;21.020;2023-04-15T11:02:42;5.63;;;3.38;;
75746;SDS011;64363;52.198;21.020;2023-04-15T11:05:14;5.97;;;3.80;;
75746;SDS011;64363;52.198;21.020;2023-04-15T11:13:31;6.03;;;4.53;;
75746;SDS011;64363;52.198;21.020;2023-04-15T11:15:38;9.65;;;5.82;;
75746;SDS011;64363;52.198;21.020;2023-04-15T11:18:11;12.85;;;9.77;;
75746;SDS011;64363;52.198;21.020;2023-04-15T11:20:57;10.77;;;6.10;;
75746;SDS011;64363;52.198;21.020;2023-04-15T11:26:05;7.88;;;5.10;;
75746;SDS011;64363;52.198;21.020;2023-04-15T11:28:37;8.18;;;4.22;;
75746;SDS011;64363;52.198;21.020;2023-04-15T11:31:12;5.43;;;4.05;;
75746;SDS011;64363;52.198;21.020;2023-04-15T11:33:57;6.38;;;3.80;;
75746;SDS011;64363;52.198;21.020;2023-04-15T11:36:26;4.82;;;3.10;;
75746;SDS011;64363;52.198;21.020;2023-04-15T11:38:57;5.28;;;3.70;;
75746;SDS011;64363;52.198;21.020;2023-04-15T11:41:23;5.47;;;3.30;;
75746;SDS011;64363;52.198;21.020;2023-04-15T11:43:49;5.60;;;3.38;;
75746;SDS011;64363;52.198;21.020;2023-04-15T11:46:16;8.45;;;3.95;;
75746;SDS011;64363;52.198;21.020;2023-04-15T11:48:42;5.95;;;4.13;;
75746;SDS011;64363;52.198;21.020;2023-04-15T11:51:09;14.63;;;7.85;;
75746;SDS011;64363;52.198;21.020;2023-04-15T11:53:40;13.93;;;7.95;;
75746;SDS011;64363;52.198;21.020;2023-04-15T11:56:08;12.90;;;7.70;;
75746;SDS011;64363;52.198;21.020;2023-04-15T11:58:35;9.77;;;6.45;;
75746;SDS011;64363;52.198;21.020;2023-04-15T12:01:03;10.98;;;6.72;;
75746;SDS011;64363;52.198;21.020;2023-04-15T12:03:34;7.88;;;5.82;;
75746;SDS011;64363;52.198;21.020;2023-04-15T12:08:50;7.75;;;5.22;;
75746;SDS011;64363;52.198;21.020;2023-04-15T12:13:55;9.80;;;5.20;;
75746;SDS011;64363;52.198;21.020;2023-04-15T12:16:23;7.30;;;4.55;;
75746;SDS011;64363;52.198;21.020;2023-04-15T12:18:49;9.70;;;4.97;;
75746;SDS011;64363;52.198;21.020;2023-04-15T12:21:18;7.28;;;4.93;;
75746;SDS011;64363;52.198;21.020;2023-04-15T12:23:48;6.95;;;5.00;;
75746;SDS011;64363;52.198;21.020;2023-04-15T12:26:18;9.60;;;4.57;;
75746;SDS011;64363;52.198;21.020;2023-04-15T12:28:52;7.35;;;4.22;;
75746;SDS011;64363;52.198;21.020;2023-04-15T12:31:20;7.50;;;5.60;;
75746;SDS011;64363;52.198;21.020;2023-04-15T12:33:47;8.05;;;4.68;;
75746;SDS011;64363;52.198;21.020;2023-04-15T12:36:14;7.50;;;4.68;;
75746;SDS011;64363;52.198;21.020;2023-04-15T12:38:40;8.10;;;4.75;;
75746;SDS011;64363;52.198;21.020;2023-04-15T12:41:06;10.32;;;5.80;;
75746;SDS011;64363;52.198;21.020;2023-04-15T12:43:32;8.10;;;6.18;;
75746;SDS011;64363;52.198;21.020;2023-04-15T12:45:58;8.70;;;5.50;;
75746;SDS011;64363;52.198;21.020;2023-04-15T12:48:23;7.95;;;5.65;;
75746;SDS011;64363;52.198;21.020;2023-04-15T12:50:49;8.23;;;5.20;;
75746;SDS011;64363;52.198;21.020;2023-04-15T12:53:15;8.20;;;4.43;;
75746;SDS011;64363;52.198;21.020;2023-04-15T12:55:41;5.15;;;3.30;;
75746;SDS011;64363;52.198;21.020;2023-04-15T12:58:07;4.88;;;3.00;;
75746;SDS011;64363;52.198;21.020;2023-04-15T13:00:33;6.40;;;3.60;;
75746;SDS011;64363;52.198;21.020;2023-04-15T13:02:59;6.07;;;3.28;;
75746;SDS011;64363;52.198;21.020;2023-04-15T13:05:25;7.85;;;3.88;;
75746;SDS011;64363;52.198;21.020;2023-04-15T13:07:50;7.80;;;4.80;;
75746;SDS011;64363;52.198;21.020;2023-04-15T13:10:16;7.13;;;4.13;;
75746;SDS011;64363;52.198;21.020;2023-04-15T13:12:42;8.90;;;5.20;;
75746;SDS011;64363;52.198;21.020;2023-04-15T13:15:11;7.43;;;4.25;;
75746;SDS011;64363;52.198;21.020;2023-04-15T13:17:37;6.40;;;3.55;;
75746;SDS011;64363;52.198;21.020;2023-04-15T13:20:03;3.72;;;2.17;;
75746;SDS011;64363;52.198;21.020;2023-04-15T13:22:28;3.95;;;2.67;;
75746;SDS011;64363;52.198;21.020;2023-04-15T13:24:55;5.53;;;2.72;;
75746;SDS011;64363;52.198;21.020;2023-04-15T13:27:20;4.65;;;2.72;;
75746;SDS011;64363;52.198;21.020;2023-04-15T13:29:46;4.97;;;2.83;;
75746;SDS011;64363;52.198;21.020;2023-04-15T13:32:12;5.93;;;2.95;;
75746;SDS011;64363;52.198;21.020;2023-04-15T13:34:38;5.65;;;3.40;;
75746;SDS011;64363;52.198;21.020;2023-04-15T13:37:07;4.65;;;3.30;;
75746;SDS011;64363;52.198;21.020;2023-04-15T13:39:33;5.95;;;3.25;;
75746;SDS011;64363;52.198;21.020;2023-04-15T13:41:59;7.30;;;3.53;;
75746;SDS011;64363;52.198;21.020;2023-04-15T13:44:25;6.97;;;3.45;;
75746;SDS011;64363;52.198;21.020;2023-04-15T13:46:51;5.95;;;3.33;;
75746;SDS011;64363;52.198;21.020;2023-04-15T13:49:17;4.80;;;3.00;;
75746;SDS011;64363;52.198;21.020;2023-04-15T13:51:42;5.47;;;2.42;;
75746;SDS011;64363;52.198;21.020;2023-04-15T13:54:08;3.80;;;2.40;;
75746;SDS011;64363;52.198;21.020;2023-04-15T13:56:34;4.03;;;2.60;;
75746;SDS011;64363;52.198;21.020;2023-04-15T13:59:00;4.20;;;2.85;;
75746;SDS011;64363;52.198;21.020;2023-04-15T14:01:27;4.60;;;2.67;;
75746;SDS011;64363;52.198;21.020;2023-04-15T14:03:54;5.75;;;3.33;;
75746;SDS011;64363;52.198;21.020;2023-04-15T14:06:19;6.38;;;3.38;;
75746;SDS011;64363;52.198;21.020;2023-04-15T14:08:45;5.80;;;3.30;;
75746;SDS011;64363;52.198;21.020;2023-04-15T14:11:11;4.63;;;2.80;;
75746;SDS011;64363;52.198;21.020;2023-04-15T14:13:37;6.95;;;3.35;;
75746;SDS011;64363;52.198;21.020;2023-04-15T14:16:02;6.00;;;3.22;;
75746;SDS011;64363;52.198;21.020;2023-04-15T14:18:28;6.07;;;2.88;;
75746;SDS011;64363;52.198;21.020;2023-04-15T14:20:55;5.65;;;2.53;;
75746;SDS011;64363;52.198;21.020;2023-04-15T14:23:21;11.35;;;4.28;;
75746;SDS011;64363;52.198;21.020;2023-04-15T14:25:47;9.02;;;3.10;;
75746;SDS011;64363;52.198;21.020;2023-04-15T14:28:13;10.77;;;3.78;;
75746;SDS011;64363;52.198;21.020;2023-04-15T14:30:39;11.65;;;3.80;;
75746;SDS011;64363;52.198;21.020;2023-04-15T14:33:06;5.47;;;3.10;;
75746;SDS011;64363;52.198;21.020;2023-04-15T14:35:32;5.75;;;2.78;;
75746;SDS011;64363;52.198;21.020;2023-04-15T14:37:57;5.38;;;2.83;;
75746;SDS011;64363;52.198;21.020;2023-04-15T14:40:23;4.68;;;2.60;;
75746;SDS011;64363;52.198;21.020;2023-04-15T14:42:49;5.13;;;3.00;;
75746;SDS011;64363;52.198;21.020;2023-04-15T14:45:15;4.05;;;2.70;;
75746;SDS011;64363;52.198;21.020;2023-04-15T14:47:42;6.88;;;3.10;;
75746;SDS011;64363;52.198;21.020;2023-04-15T14:50:08;5.68;;;2.88;;
75746;SDS011;64363;52.198;21.020;2023-04-15T14:52:34;3.60;;;2.33;;
75746;SDS011;64363;52.198;21.020;2023-04-15T14:55:06;4.63;;;2.40;;
75746;SDS011;64363;52.198;21.020;2023-04-15T14:57:35;3.50;;;2.50;;
75746;SDS011;64363;52.198;21.020;2023-04-15T15:00:02;5.30;;;2.65;;
75746;SDS011;64363;52.198;21.020;2023-04-15T15:02:29;4.07;;;2.70;;
75746;SDS011;64363;52.198;21.020;2023-04-15T15:04:54;4.72;;;2.72;;
75746;SDS011;64363;52.198;21.020;2023-04-15T15:07:21;3.90;;;2.30;;
75746;SDS011;64363;52.198;21.020;2023-04-15T15:09:47;4.53;;;2.55;;
75746;SDS011;64363;52.198;21.020;2023-04-15T15:12:13;3.90;;;2.50;;
75746;SDS011;64363;52.198;21.020;2023-04-15T15:14:39;4.18;;;2.53;;
75746;SDS011;64363;52.198;21.020;2023-04-15T15:17:05;5.75;;;2.42;;
75746;SDS011;64363;52.198;21.020;2023-04-15T15:19:30;3.83;;;2.45;;
75746;SDS011;64363;52.198;21.020;2023-04-15T15:21:56;4.43;;;2.35;;
75746;SDS011;64363;52.198;21.020;2023-04-15T15:24:22;4.13;;;2.42;;
75746;SDS011;64363;52.198;21.020;2023-04-15T15:26:48;3.72;;;2.08;;
75746;SDS011;64363;52.198;21.020;2023-04-15T15:29:13;5.28;;;2.40;;
75746;SDS011;64363;52.198;21.020;2023-04-15T15:31:39;3.95;;;2.45;;
75746;SDS011;64363;52.198;21.020;2023-04-15T15:34:05;4.53;;;2.92;;
75746;SDS011;64363;52.198;21.020;2023-04-15T15:36:31;3.85;;;2.20;;
75746;SDS011;64363;52.198;21.020;2023-04-15T15:38:57;3.83;;;2.38;;
75746;SDS011;64363;52.198;21.020;2023-04-15T15:41:23;2.97;;;2.15;;
75746;SDS011;64363;52.198;21.020;2023-04-15T15:43:50;3.72;;;2.00;;
75746;SDS011;64363;52.198;21.020;2023-04-15T15:46:16;3.88;;;2.30;;
75746;SDS011;64363;52.198;21.020;2023-04-15T15:48:42;5.03;;;2.40;;
75746;SDS011;64363;52.198;21.020;2023-04-15T15:51:08;4.25;;;1.95;;
75746;SDS011;64363;52.198;21.020;2023-04-15T15:53:34;3.45;;;2.03;;
75746;SDS011;64363;52.198;21.020;2023-04-15T15:56:00;6.43;;;2.08;;
75746;SDS011;64363;52.198;21.020;2023-04-15T15:58:28;3.17;;;1.95;;
75746;SDS011;64363;52.198;21.020;2023-04-15T16:00:54;5.43;;;2.30;;
75746;SDS011;64363;52.198;21.020;2023-04-15T16:03:21;3.95;;;1.90;;
75746;SDS011;64363;52.198;21.020;2023-04-15T16:05:47;3.72;;;2.05;;
75746;SDS011;64363;52.198;21.020;2023-04-15T16:08:14;2.83;;;2.03;;
75746;SDS011;64363;52.198;21.020;2023-04-15T16:10:40;4.15;;;2.75;;
75746;SDS011;64363;52.198;21.020;2023-04-15T16:13:05;4.43;;;2.70;;
75746;SDS011;64363;52.198;21.020;2023-04-15T16:15:31;5.80;;;2.35;;
75746;SDS011;64363;52.198;21.020;2023-04-15T16:17:58;4.03;;;2.63;;
75746;SDS011;64363;52.198;21.020;2023-04-15T16:20:25;5.20;;;2.65;;
75746;SDS011;64363;52.198;21.020;2023-04-15T16:22:52;2.95;;;2.05;;
75746;SDS011;64363;52.198;21.020;2023-04-15T16:25:18;3.65;;;2.30;;
75746;SDS011;64363;52.198;21.020;2023-04-15T16:27:44;4.68;;;2.78;;
75746;SDS011;64363;52.198;21.020;2023-04-15T16:30:10;3.95;;;2.63;;
75746;SDS011;64363;52.198;21.020;2023-04-15T16:32:36;4.78;;;2.28;;
75746;SDS011;64363;52.198;21.020;2023-04-15T16:35:02;3.88;;;2.58;;
75746;SDS011;64363;52.198;21.020;2023-04-15T16:37:28;4.22;;;3.03;;
75746;SDS011;64363;52.198;21.020;2023-04-15T16:39:54;4.95;;;2.53;;
75746;SDS011;64363;52.198;21.020;2023-04-15T16:42:20;4.22;;;2.20;;
75746;SDS011;64363;52.198;21.020;2023-04-15T16:44:45;4.07;;;2.60;;
75746;SDS011;64363;52.198;21.020;2023-04-15T16:47:11;3.17;;;2.03;;
75746;SDS011;64363;52.198;21.020;2023-04-15T16:49:37;5.88;;;2.55;;
75746;SDS011;64363;52.198;21.020;2023-04-15T16:52:02;12.48;;;7.50;;
75746;SDS011;64363;52.198;21.020;2023-04-15T16:54:28;4.57;;;3.10;;
75746;SDS011;64363;52.198;21.020;2023-04-15T16:56:55;9.30;;;4.72;;
75746;SDS011;64363;52.198;21.020;2023-04-15T16:59:23;8.60;;;4.07;;
75746;SDS011;64363;52.198;21.020;2023-04-15T17:01:49;4.45;;;3.22;;
75746;SDS011;64363;52.198;21.020;2023-04-15T17:04:15;6.95;;;3.00;;
75746;SDS011;64363;52.198;21.020;2023-04-15T17:06:41;4.70;;;3.13;;
75746;SDS011;64363;52.198;21.020;2023-04-15T17:09:07;5.15;;;3.10;;
75746;SDS011;64363;52.198;21.020;2023-04-15T17:11:33;7.65;;;3.30;;
75746;SDS011;64363;52.198;21.020;2023-04-15T17:14:01;6.05;;;3.40;;
75746;SDS011;64363;52.198;21.020;2023-04-15T17:16:27;8.00;;;3.90;;
75746;SDS011;64363;52.198;21.020;2023-04-15T17:18:53;7.63;;;3.40;;
75746;SDS011;64363;52.198;21.020;2023-04-15T17:21:18;7.10;;;3.78;;
75746;SDS011;64363;52.198;21.020;2023-04-15T17:23:45;7.97;;;3.95;;